createdAt,value
2022-10-17T00:01:18.721Z,100.00
2022-10-17T00:03:46.962Z,100.00
2022-10-17T00:06:15.878Z,100.00
2022-10-17T00:08:44.640Z,100.00
2022-10-17T00:11:15.681Z,100.00
2022-10-17T00:13:43.853Z,100.00
2022-10-17T00:16:12.047Z,100.00
2022-10-17T00:18:41.631Z,100.00
2022-10-17T00:21:16.854Z,100.00
2022-10-17T00:23:45.059Z,100.00
2022-10-17T00:26:13.407Z,100.00
2022-10-17T00:28:41.616Z,100.00
2022-10-17T00:31:11.993Z,100.00
2022-10-17T00:33:41.544Z,100.00
2022-10-17T00:36:11.019Z,100.00
2022-10-17T00:38:39.211Z,100.00
2022-10-17T00:41:09.470Z,100.00
2022-10-17T00:43:52.077Z,100.00
2022-10-17T00:46:20.262Z,100.00
2022-10-17T00:48:49.951Z,100.00
2022-10-17T00:51:18.400Z,100.00
2022-10-17T00:53:46.651Z,100.00
2022-10-17T00:56:14.726Z,100.00
2022-10-17T00:58:45.300Z,100.00
2022-10-17T01:01:13.479Z,100.00
2022-10-17T01:03:42.068Z,100.00
2022-10-17T01:06:11.581Z,100.00
2022-10-17T01:08:39.790Z,100.00
2022-10-17T01:11:13.012Z,100.00
2022-10-17T01:13:43.831Z,100.00
2022-10-17T01:16:14.542Z,100.00
2022-10-17T01:18:52.765Z,100.00
2022-10-17T01:21:34.549Z,100.00
2022-10-17T01:24:21.119Z,100.00
2022-10-17T01:27:00.496Z,100.00
2022-10-17T01:29:53.534Z,100.00
2022-10-17T01:32:24.396Z,100.00
2022-10-17T01:34:56.050Z,100.00
2022-10-17T01:37:28.006Z,100.00
2022-10-17T01:39:59.237Z,100.00
2022-10-17T01:42:28.877Z,100.00
2022-10-17T01:44:59.032Z,100.00
2022-10-17T01:47:30.220Z,100.00
2022-10-17T01:49:59.709Z,100.00
2022-10-17T01:52:28.980Z,100.00
2022-10-17T01:54:58.406Z,100.00
2022-10-17T01:57:32.864Z,100.00
2022-10-17T02:00:01.168Z,100.00
2022-10-17T02:02:31.652Z,100.00
2022-10-17T02:07:28.526Z,100.00
2022-10-17T02:09:56.907Z,100.00
2022-10-17T02:12:35.482Z,100.00
2022-10-17T02:15:18.072Z,100.00
2022-10-17T02:17:50.889Z,100.00
2022-10-17T02:20:23.281Z,100.00
2022-10-17T02:22:54.201Z,100.00
2022-10-17T02:25:25.347Z,100.00
2022-10-17T02:27:57.772Z,100.00
2022-10-17T02:30:30.550Z,100.00
2022-10-17T02:33:02.426Z,100.00
2022-10-17T02:35:32.581Z,100.00
2022-10-17T02:38:00.792Z,100.00
2022-10-17T02:40:29.034Z,100.00
2022-10-17T02:43:02.005Z,100.00
2022-10-17T02:45:35.833Z,100.00
2022-10-17T02:48:08.762Z,100.00
2022-10-17T02:50:44.516Z,100.00
2022-10-17T02:53:15.743Z,100.00
2022-10-17T02:55:47.214Z,100.00
2022-10-17T02:58:21.722Z,100.00
2022-10-17T03:00:50.475Z,100.00
2022-10-17T03:03:24.672Z,100.00
2022-10-17T03:05:53.408Z,100.00
2022-10-17T03:08:25.469Z,100.00
2022-10-17T03:10:54.231Z,100.00
2022-10-17T03:13:23.732Z,100.00
2022-10-17T03:15:52.303Z,100.00
2022-10-17T03:18:20.753Z,100.00
2022-10-17T03:20:54.853Z,100.00
2022-10-17T03:23:23.215Z,100.00
2022-10-17T03:25:52.133Z,100.00
2022-10-17T03:28:20.921Z,100.00
2022-10-17T03:30:50.365Z,100.00
2022-10-17T03:33:18.536Z,100.00
2022-10-17T03:35:46.869Z,100.00
2022-10-17T03:38:16.467Z,100.00
2022-10-17T03:40:45.077Z,100.00
2022-10-17T03:43:13.329Z,100.00
2022-10-17T03:45:43.746Z,100.00
2022-10-17T03:48:11.851Z,100.00
2022-10-17T03:50:40.008Z,100.00
2022-10-17T03:53:09.327Z,100.00
2022-10-17T03:55:39.719Z,100.00
2022-10-17T03:58:07.988Z,100.00
2022-10-17T04:00:37.094Z,100.00
2022-10-17T04:03:05.381Z,100.00
2022-10-17T04:05:33.828Z,100.00
2022-10-17T04:08:04.653Z,100.00
2022-10-17T04:11:01.183Z,100.00
2022-10-17T04:13:29.544Z,100.00
2022-10-17T04:15:57.827Z,100.00
2022-10-17T04:18:26.576Z,100.00
2022-10-17T04:20:54.793Z,100.00
2022-10-17T04:23:23.311Z,100.00
2022-10-17T04:25:57.960Z,100.00
2022-10-17T04:28:28.621Z,100.00
2022-10-17T04:31:00.155Z,100.00
2022-10-17T04:33:33.765Z,100.00
2022-10-17T04:36:02.341Z,100.00
2022-10-17T04:38:31.663Z,100.00
2022-10-17T04:41:00.105Z,100.00
2022-10-17T04:43:29.749Z,100.00
2022-10-17T04:45:58.662Z,100.00
2022-10-17T04:48:26.801Z,100.00
2022-10-17T04:50:55.882Z,100.00
2022-10-17T04:53:42.886Z,100.00
2022-10-17T04:56:11.856Z,100.00
2022-10-17T04:58:42.058Z,100.00
2022-10-17T05:01:12.247Z,100.00
2022-10-17T05:03:45.870Z,100.00
2022-10-17T05:06:14.941Z,100.00
2022-10-17T05:08:46.668Z,100.00
2022-10-17T05:11:19.204Z,100.00
2022-10-17T05:13:52.737Z,100.00
2022-10-17T05:16:20.917Z,100.00
2022-10-17T05:18:53.042Z,100.00
2022-10-17T05:21:22.026Z,100.00
2022-10-17T05:23:50.333Z,100.00
2022-10-17T05:26:19.171Z,100.00
2022-10-17T05:28:47.336Z,100.00
2022-10-17T05:31:17.435Z,100.00
2022-10-17T05:33:45.710Z,100.00
2022-10-17T05:36:14.997Z,100.00
2022-10-17T05:38:43.189Z,100.00
2022-10-17T05:41:12.691Z,100.00
2022-10-17T05:43:40.888Z,100.00
2022-10-17T05:46:09.026Z,100.00
2022-10-17T05:48:39.098Z,100.00
2022-10-17T05:51:09.165Z,100.00
2022-10-17T05:53:38.981Z,100.00
2022-10-17T05:56:11.484Z,100.00
2022-10-17T05:59:00.795Z,100.00
2022-10-17T06:01:52.174Z,100.00
2022-10-17T06:04:22.599Z,100.00
2022-10-17T06:06:50.848Z,100.00
2022-10-17T06:09:19.504Z,100.00
2022-10-17T06:11:50.407Z,100.00
2022-10-17T06:14:18.845Z,100.00
2022-10-17T06:16:49.493Z,100.00
2022-10-17T06:19:17.726Z,100.00
2022-10-17T06:21:49.069Z,100.00
2022-10-17T06:24:23.822Z,100.00
2022-10-17T06:27:10.992Z,100.00
2022-10-17T06:30:17.235Z,100.00
2022-10-17T06:32:57.077Z,100.00
2022-10-17T06:35:26.175Z,100.00
2022-10-17T06:37:55.634Z,100.00
2022-10-17T06:40:25.040Z,100.00
2022-10-17T06:42:53.271Z,100.00
2022-10-17T06:45:39.979Z,100.00
2022-10-17T06:48:30.921Z,100.00
2022-10-17T06:51:36.254Z,100.00
2022-10-17T06:54:08.140Z,100.00
2022-10-17T06:56:50.925Z,100.00
2022-10-17T06:59:47.601Z,100.00
2022-10-17T07:02:23.695Z,100.00
2022-10-17T07:04:53.817Z,99.95
2022-10-17T07:07:21.963Z,98.59
2022-10-17T07:09:52.640Z,97.47
2022-10-17T07:12:22.558Z,98.77
2022-10-17T07:14:51.383Z,95.97
2022-10-17T07:17:20.991Z,97.58
2022-10-17T07:19:49.145Z,98.09
2022-10-17T07:22:18.010Z,97.68
2022-10-17T07:27:36.597Z,95.28
2022-10-17T07:30:06.298Z,95.92
2022-10-17T07:32:37.978Z,94.27
2022-10-17T07:35:07.157Z,95.14
2022-10-17T07:37:35.636Z,93.42
2022-10-17T07:40:04.029Z,93.06
2022-10-17T07:42:32.142Z,93.97
2022-10-17T07:45:01.749Z,93.71
2022-10-17T07:47:35.649Z,95.62
2022-10-17T07:50:03.974Z,93.42
2022-10-17T07:52:32.527Z,95.71
2022-10-17T07:55:00.879Z,96.89
2022-10-17T07:57:29.051Z,94.60
2022-10-17T07:59:57.283Z,93.71
2022-10-17T08:02:27.945Z,93.59
2022-10-17T08:04:56.226Z,91.44
2022-10-17T08:07:29.187Z,93.84
2022-10-17T08:09:57.723Z,92.50
2022-10-17T08:12:26.233Z,92.99
2022-10-17T08:14:54.598Z,93.38
2022-10-17T08:17:22.891Z,94.34
2022-10-17T08:19:52.665Z,94.19
2022-10-17T08:22:20.773Z,93.45
2022-10-17T08:24:48.981Z,92.30
2022-10-17T08:27:21.577Z,91.75
2022-10-17T08:29:52.835Z,92.56
2022-10-17T08:32:21.270Z,92.59
2022-10-17T08:34:49.391Z,90.50
2022-10-17T08:37:18.962Z,90.72
2022-10-17T08:39:47.005Z,89.88
2022-10-17T08:42:50.006Z,88.83
2022-10-17T08:45:21.310Z,90.23
2022-10-17T08:47:53.427Z,90.46
2022-10-17T08:50:25.706Z,89.55
2022-10-17T08:52:55.944Z,92.67
2022-10-17T08:55:30.937Z,89.76
2022-10-17T08:57:59.337Z,90.01
2022-10-17T09:00:27.754Z,83.64
2022-10-17T09:03:03.413Z,85.59
2022-10-17T09:05:39.018Z,80.47
2022-10-17T09:08:14.359Z,79.16
2022-10-17T09:10:48.795Z,78.48
2022-10-17T09:13:23.294Z,75.46
2022-10-17T09:16:01.402Z,70.14
2022-10-17T09:18:31.547Z,70.48
2022-10-17T09:21:11.492Z,68.28
2022-10-17T09:23:43.828Z,65.58
2022-10-17T09:26:12.013Z,63.10
2022-10-17T09:28:41.606Z,61.34
2022-10-17T09:31:13.922Z,60.71
2022-10-17T09:33:53.984Z,61.11
2022-10-17T09:36:24.991Z,60.68
2022-10-17T09:38:55.818Z,57.90
2022-10-17T09:41:44.446Z,58.30
2022-10-17T09:44:21.892Z,56.87
2022-10-17T09:47:20.473Z,57.41
2022-10-17T09:49:49.322Z,57.45
2022-10-17T09:52:19.026Z,54.09
2022-10-17T09:54:50.195Z,56.43
2022-10-17T09:57:18.953Z,54.83
2022-10-17T09:59:48.510Z,53.87
2022-10-17T10:02:19.721Z,53.62
2022-10-17T10:05:07.094Z,54.73
2022-10-17T10:07:37.478Z,53.10
2022-10-17T10:10:08.952Z,52.96
2022-10-17T10:12:38.311Z,50.96
2022-10-17T10:15:32.185Z,52.02
2022-10-17T10:18:00.308Z,52.67
2022-10-17T10:20:31.945Z,51.71
2022-10-17T10:23:14.203Z,51.65
2022-10-17T10:25:55.212Z,49.80
2022-10-17T10:28:24.995Z,51.96
2022-10-17T10:30:53.110Z,51.49
2022-10-17T10:33:21.650Z,49.39
2022-10-17T10:36:01.685Z,48.84
2022-10-17T10:38:29.969Z,50.47
2022-10-17T10:41:04.147Z,51.96
2022-10-17T10:43:35.267Z,51.22
2022-10-17T10:46:03.934Z,49.09
2022-10-17T10:48:33.730Z,47.78
2022-10-17T10:51:02.970Z,50.53
2022-10-17T10:53:38.634Z,49.48
2022-10-17T10:56:11.179Z,47.79
2022-10-17T10:58:44.189Z,47.57
2022-10-17T11:01:20.031Z,47.35
2022-10-17T11:03:55.399Z,48.46
2022-10-17T11:06:25.152Z,47.12
2022-10-17T11:09:00.303Z,43.22
2022-10-17T11:11:33.617Z,47.05
2022-10-17T11:14:03.322Z,46.00
2022-10-17T11:16:34.412Z,43.32
2022-10-17T11:19:08.371Z,44.78
2022-10-17T11:24:18.177Z,43.96
2022-10-17T11:26:50.992Z,45.31
2022-10-17T11:29:19.538Z,45.87
2022-10-17T11:31:49.370Z,44.56
2022-10-17T11:34:20.606Z,44.37
2022-10-17T11:36:57.926Z,45.44
2022-10-17T11:39:30.457Z,43.85
2022-10-17T11:42:03.470Z,44.68
2022-10-17T11:44:33.508Z,46.04
2022-10-17T11:47:03.070Z,45.88
2022-10-17T11:49:36.847Z,46.71
2022-10-17T11:52:19.473Z,49.54
2022-10-17T11:55:02.503Z,48.75
2022-10-17T11:58:00.718Z,49.90
2022-10-17T12:00:37.927Z,51.13
2022-10-17T12:03:17.246Z,52.88
2022-10-17T12:05:48.230Z,53.22
2022-10-17T12:08:21.493Z,53.43
2022-10-17T12:10:53.463Z,53.85
2022-10-17T12:13:48.849Z,54.66
2022-10-17T12:16:47.491Z,54.70
2022-10-17T12:19:32.695Z,53.94
2022-10-17T12:22:03.680Z,54.73
2022-10-17T12:24:56.506Z,54.69
2022-10-17T12:27:34.686Z,54.93
2022-10-17T12:30:06.335Z,54.16
2022-10-17T12:33:00.033Z,55.20
2022-10-17T12:35:28.504Z,55.11
2022-10-17T12:38:19.784Z,56.00
2022-10-17T12:40:52.751Z,55.01
2022-10-17T12:43:59.207Z,56.51
2022-10-17T12:46:59.369Z,54.59
2022-10-17T12:49:39.707Z,54.17
2022-10-17T12:52:23.823Z,54.22
2022-10-17T12:55:12.103Z,54.43
2022-10-17T12:57:49.813Z,53.49
2022-10-17T13:00:23.340Z,51.76
2022-10-17T13:02:54.599Z,50.27
2022-10-17T13:05:27.925Z,50.95
2022-10-17T13:07:55.994Z,50.10
2022-10-17T13:12:55.129Z,49.60
2022-10-17T13:15:23.243Z,48.75
2022-10-17T13:17:59.170Z,48.66
2022-10-17T13:20:31.541Z,48.53
2022-10-17T13:23:00.000Z,48.33
2022-10-17T13:25:28.425Z,48.75
2022-10-17T13:28:08.337Z,51.14
2022-10-17T13:30:37.385Z,51.60
2022-10-17T13:33:34.008Z,52.98
2022-10-17T13:36:02.555Z,54.76
2022-10-17T13:38:32.448Z,53.32
2022-10-17T13:41:22.910Z,54.08
2022-10-17T13:43:49.133Z,52.37
2022-10-17T13:46:36.729Z,53.11
2022-10-17T13:49:16.475Z,52.09
2022-10-17T13:51:45.315Z,52.06
2022-10-17T13:54:37.517Z,51.06
2022-10-17T13:57:06.149Z,53.80
2022-10-17T13:59:38.793Z,52.02
2022-10-17T14:02:12.588Z,50.00
2022-10-17T14:05:11.730Z,50.78
2022-10-17T14:07:46.339Z,51.88
2022-10-17T14:10:21.755Z,51.87
2022-10-17T14:12:51.160Z,53.02
2022-10-17T14:15:19.708Z,51.34
2022-10-17T14:17:47.830Z,51.54
2022-10-17T14:25:02.172Z,52.46
2022-10-17T14:27:58.170Z,53.92
2022-10-17T14:30:55.662Z,53.29
2022-10-17T14:33:25.246Z,53.28
2022-10-17T14:35:53.406Z,53.49
2022-10-17T14:38:21.508Z,54.23
2022-10-17T14:40:51.114Z,55.77
2022-10-17T14:43:22.608Z,54.70
2022-10-17T14:46:00.534Z,55.53
2022-10-17T14:48:35.005Z,57.61
2022-10-17T14:51:14.212Z,61.40
2022-10-17T14:53:42.521Z,65.25
2022-10-17T14:56:38.162Z,66.89
2022-10-17T14:59:30.030Z,69.81
2022-10-17T15:02:07.434Z,73.08
2022-10-17T15:04:38.830Z,72.85
2022-10-17T15:07:08.025Z,74.14
2022-10-17T15:09:37.247Z,76.02
2022-10-17T15:12:08.414Z,76.50
2022-10-17T15:14:47.175Z,79.30
2022-10-17T15:17:22.604Z,79.75
2022-10-17T15:19:55.501Z,81.21
2022-10-17T15:22:24.928Z,82.92
2022-10-17T15:24:55.317Z,83.04
2022-10-17T15:27:33.675Z,83.62
2022-10-17T15:30:20.669Z,84.44
2022-10-17T15:32:51.584Z,84.77
2022-10-17T15:35:20.298Z,85.91
2022-10-17T15:37:48.463Z,87.11
2022-10-17T15:40:17.827Z,86.87
2022-10-17T15:42:46.116Z,87.92
2022-10-17T15:45:17.135Z,88.72
2022-10-17T15:47:46.063Z,88.93
2022-10-17T15:50:15.749Z,88.70
2022-10-17T15:52:43.901Z,89.94
2022-10-17T15:55:12.207Z,91.29
2022-10-17T15:57:41.465Z,92.26
2022-10-17T16:00:16.807Z,92.96
2022-10-17T16:02:45.059Z,93.51
2022-10-17T16:05:16.162Z,94.63
2022-10-17T16:07:46.193Z,95.11
2022-10-17T16:10:14.557Z,96.36
2022-10-17T16:12:42.743Z,97.17
2022-10-17T16:15:15.837Z,98.36
2022-10-17T16:17:44.661Z,100.00
2022-10-17T16:20:13.542Z,100.00
2022-10-17T16:22:42.339Z,100.00
2022-10-17T16:25:19.562Z,100.00
2022-10-17T16:27:47.866Z,100.00
2022-10-17T16:30:17.700Z,100.00
2022-10-17T16:32:46.204Z,100.00
2022-10-17T16:35:17.672Z,100.00
2022-10-17T16:37:45.871Z,100.00
2022-10-17T16:40:14.147Z,100.00
2022-10-17T16:42:45.042Z,100.00
2022-10-17T16:45:19.273Z,100.00
2022-10-17T16:47:47.759Z,100.00
2022-10-17T16:50:16.458Z,100.00
2022-10-17T16:52:44.674Z,100.00
2022-10-17T16:55:12.983Z,100.00
2022-10-17T16:57:41.169Z,100.00
2022-10-17T17:00:12.047Z,100.00
2022-10-17T17:02:41.576Z,100.00
2022-10-17T17:05:10.180Z,100.00
2022-10-17T17:07:38.278Z,100.00
2022-10-17T17:10:07.418Z,100.00
2022-10-17T17:12:35.618Z,100.00
2022-10-17T17:15:04.266Z,100.00
2022-10-17T17:17:48.782Z,100.00
2022-10-17T17:23:59.942Z,100.00
2022-10-17T17:26:55.763Z,100.00
2022-10-17T17:29:24.711Z,100.00
2022-10-17T17:31:52.887Z,100.00
2022-10-17T17:34:21.084Z,100.00
2022-10-17T17:36:50.717Z,100.00
2022-10-17T17:39:18.821Z,100.00
2022-10-17T17:41:47.271Z,100.00
2022-10-17T17:44:16.796Z,100.00
2022-10-17T17:46:45.935Z,100.00
2022-10-17T17:49:14.066Z,100.00
2022-10-17T17:51:46.311Z,100.00
2022-10-17T17:54:15.967Z,100.00
2022-10-17T17:56:44.625Z,100.00
2022-10-17T17:59:13.855Z,100.00
2022-10-17T18:01:42.018Z,100.00
2022-10-17T18:04:10.249Z,100.00
2022-10-17T18:06:38.689Z,100.00
2022-10-17T18:09:07.531Z,100.00
2022-10-17T18:11:37.392Z,100.00
2022-10-17T18:14:06.492Z,100.00
2022-10-17T18:16:35.528Z,100.00
2022-10-17T18:19:06.705Z,100.00
2022-10-17T18:21:35.312Z,100.00
2022-10-17T18:24:04.591Z,100.00
2022-10-17T18:26:32.832Z,100.00
2022-10-17T18:29:02.417Z,100.00
2022-10-17T18:31:35.636Z,100.00
2022-10-17T18:34:04.701Z,100.00
2022-10-17T18:36:33.749Z,100.00
2022-10-17T18:39:02.080Z,100.00
2022-10-17T18:41:30.289Z,100.00
2022-10-17T18:43:58.495Z,100.00
2022-10-17T18:46:29.602Z,100.00
2022-10-17T18:49:00.056Z,100.00
2022-10-17T18:51:31.439Z,100.00
2022-10-17T18:53:59.660Z,100.00
2022-10-17T18:56:27.817Z,100.00
2022-10-17T18:58:56.161Z,100.00
2022-10-17T19:01:25.592Z,100.00
2022-10-17T19:03:56.682Z,100.00
2022-10-17T19:06:26.232Z,100.00
2022-10-17T19:08:54.747Z,100.00
2022-10-17T19:11:24.042Z,100.00
2022-10-17T19:13:52.338Z,100.00
2022-10-17T19:16:21.907Z,100.00
2022-10-17T19:18:53.478Z,100.00
2022-10-17T19:21:23.201Z,100.00
2022-10-17T19:23:52.511Z,100.00
2022-10-17T19:26:20.763Z,100.00
2022-10-17T19:28:48.995Z,100.00
2022-10-17T19:31:18.127Z,100.00
2022-10-17T19:33:47.009Z,100.00
2022-10-17T19:36:15.143Z,100.00
2022-10-17T19:38:44.721Z,100.00
2022-10-17T19:41:13.820Z,100.00
2022-10-17T19:43:43.097Z,100.00
2022-10-17T19:46:14.268Z,100.00
2022-10-17T19:48:42.474Z,100.00
2022-10-17T19:51:13.532Z,100.00
2022-10-17T19:53:41.818Z,100.00
2022-10-17T19:56:11.685Z,100.00
2022-10-17T19:58:45.422Z,100.00
2022-10-17T20:01:14.794Z,100.00
2022-10-17T20:03:42.943Z,100.00
2022-10-17T20:06:11.283Z,100.00
2022-10-17T20:08:39.673Z,100.00
2022-10-17T20:11:08.641Z,100.00
2022-10-17T20:13:38.529Z,100.00
2022-10-17T20:16:07.498Z,100.00
2022-10-17T20:18:35.689Z,100.00
2022-10-17T20:21:04.608Z,100.00
2022-10-17T20:23:32.725Z,100.00
2022-10-17T20:26:08.108Z,100.00
2022-10-17T20:28:48.837Z,100.00
2022-10-17T20:31:17.170Z,100.00
2022-10-17T20:33:45.366Z,100.00
2022-10-17T20:36:14.608Z,100.00
2022-10-17T20:38:43.032Z,100.00
2022-10-17T20:41:11.269Z,100.00
2022-10-17T20:43:39.536Z,100.00
2022-10-17T20:46:23.284Z,100.00
2022-10-17T20:48:58.502Z,100.00
2022-10-17T20:51:27.218Z,100.00
2022-10-17T20:56:29.539Z,100.00
2022-10-17T20:58:59.039Z,100.00
2022-10-17T21:01:29.062Z,100.00
2022-10-17T21:04:06.081Z,100.00
2022-10-17T21:06:39.233Z,100.00
2022-10-17T21:09:07.468Z,100.00
2022-10-17T21:11:35.636Z,100.00
2022-10-17T21:14:04.674Z,100.00
2022-10-17T21:16:35.834Z,100.00
2022-10-17T21:19:04.321Z,100.00
2022-10-17T21:21:33.849Z,100.00
2022-10-17T21:24:02.665Z,100.00
2022-10-17T21:26:30.836Z,100.00
2022-10-17T21:28:59.102Z,100.00
2022-10-17T21:31:28.038Z,100.00
2022-10-17T21:33:58.630Z,100.00
2022-10-17T21:36:27.247Z,100.00
2022-10-17T21:38:56.653Z,100.00
2022-10-17T21:41:25.516Z,100.00
2022-10-17T21:43:54.487Z,100.00
2022-10-17T21:46:22.934Z,100.00
2022-10-17T21:48:51.819Z,100.00
2022-10-17T21:51:22.518Z,100.00
2022-10-17T21:53:50.953Z,100.00
2022-10-17T21:56:19.889Z,100.00
2022-10-17T21:58:48.129Z,100.00
2022-10-17T22:01:17.582Z,100.00
2022-10-17T22:03:46.919Z,100.00
2022-10-17T22:06:38.839Z,100.00
2022-10-17T22:09:05.623Z,100.00
2022-10-17T22:11:35.064Z,100.00
2022-10-17T22:14:07.325Z,100.00
2022-10-17T22:16:35.832Z,100.00
2022-10-17T22:19:06.424Z,100.00
2022-10-17T22:21:35.231Z,100.00
2022-10-17T22:24:05.893Z,100.00
2022-10-17T22:26:35.457Z,100.00
2022-10-17T22:29:04.441Z,100.00
2022-10-17T22:31:32.673Z,100.00
2022-10-17T22:34:00.838Z,100.00
2022-10-17T22:36:29.310Z,100.00
2022-10-17T22:38:57.402Z,100.00
2022-10-17T22:41:27.327Z,100.00
2022-10-17T22:43:55.496Z,100.00
2022-10-17T22:46:23.601Z,100.00
2022-10-17T22:48:51.782Z,100.00
2022-10-17T22:51:19.948Z,100.00
2022-10-17T22:53:48.115Z,100.00
2022-10-17T22:56:17.429Z,100.00
2022-10-17T22:58:46.939Z,100.00
2022-10-17T23:01:16.001Z,100.00
2022-10-17T23:03:44.197Z,100.00
2022-10-17T23:06:12.454Z,100.00
2022-10-17T23:08:40.966Z,100.00
2022-10-17T23:11:09.087Z,100.00
2022-10-17T23:13:37.259Z,100.00
2022-10-17T23:16:07.079Z,100.00
2022-10-17T23:18:35.178Z,100.00
2022-10-17T23:21:03.273Z,100.00
2022-10-17T23:23:31.684Z,100.00
2022-10-17T23:26:05.285Z,100.00
2022-10-17T23:28:35.579Z,100.00
2022-10-17T23:31:15.999Z,100.00
2022-10-17T23:33:45.173Z,100.00
2022-10-17T23:36:13.804Z,100.00
2022-10-17T23:38:42.642Z,100.00
2022-10-17T23:41:10.847Z,100.00
2022-10-17T23:43:39.046Z,100.00
2022-10-17T23:46:07.460Z,100.00
2022-10-17T23:48:38.525Z,100.00
2022-10-17T23:51:07.544Z,100.00
2022-10-17T23:53:35.857Z,100.00
2022-10-17T23:56:04.002Z,100.00
2022-10-17T23:58:32.505Z,100.00
